Decoded Metar for LFAQ (ALBERT in FRANCE) (IATA:N/A) | Meteo·Mobile Aviation Weather
aviador You're here:

LFAQ Decoded Metar

ALBERT in FRANCE
Report Time2019-07-19 18:30:00
UTC Time2019-07-19 18:54:05
Flight Rules vfr VFR
Wind220° at 04 kt
W.Decomp.*RWY 27: 2.6 kt HW 3 kt LCW
Visibility9999 m
Phenomena:N/A
Clouds:N/A
Expected CloudBase > 4,400 ft AGL from Temp-Dew spread
CeilingNone
Temp25°C (ISA +11)
Dew Point14°C (51% RH)
AAT24.9°C
QNH1012 hPa
Density Alt1,854 ft
Elevation364 ft
Report Wrong Elevation
Raw Report
METAR LFAQ 191830Z AUTO 22004KT CAVOK 25/14 Q1012=

Extra information for LFAQ:More info

Metar Taf Metar & Taf Last 4 Metars F.Rules Stats Wind Profile Meteogram Temp Stats Airport Information Weather charts Add Link Nearby VenuesMetar ALERT Operation Metar Decoded Social comments